sensor_id;sensor_type;location;lat;lon;timestamp;P1;durP1;ratioP1;P2;durP2;ratioP2
57800;SDS011;43627;42.728;23.256;2022-09-27T00:00:45;11.48;;;7.43;;
57800;SDS011;43627;42.728;23.256;2022-09-27T00:03:12;10.55;;;7.78;;
57800;SDS011;43627;42.728;23.256;2022-09-27T00:05:38;10.18;;;7.47;;
57800;SDS011;43627;42.728;23.256;2022-09-27T00:08:05;12.50;;;7.90;;
57800;SDS011;43627;42.728;23.256;2022-09-27T00:10:32;10.13;;;7.78;;
57800;SDS011;43627;42.728;23.256;2022-09-27T00:12:58;11.13;;;7.78;;
57800;SDS011;43627;42.728;23.256;2022-09-27T00:15:25;9.75;;;7.18;;
57800;SDS011;43627;42.728;23.256;2022-09-27T00:17:52;10.88;;;7.40;;
57800;SDS011;43627;42.728;23.256;2022-09-27T00:20:19;12.13;;;7.30;;
57800;SDS011;43627;42.728;23.256;2022-09-27T00:22:46;12.20;;;7.18;;
57800;SDS011;43627;42.728;23.256;2022-09-27T00:25:14;9.88;;;7.85;;
57800;SDS011;43627;42.728;23.256;2022-09-27T00:27:41;13.05;;;8.07;;
57800;SDS011;43627;42.728;23.256;2022-09-27T00:30:09;11.88;;;7.65;;
57800;SDS011;43627;42.728;23.256;2022-09-27T00:32:36;14.63;;;8.85;;
57800;SDS011;43627;42.728;23.256;2022-09-27T00:35:03;11.25;;;8.73;;
57800;SDS011;43627;42.728;23.256;2022-09-27T00:37:29;11.20;;;8.48;;
57800;SDS011;43627;42.728;23.256;2022-09-27T00:39:56;14.00;;;8.93;;
57800;SDS011;43627;42.728;23.256;2022-09-27T00:42:23;17.65;;;9.05;;
57800;SDS011;43627;42.728;23.256;2022-09-27T00:44:57;12.70;;;8.27;;
57800;SDS011;43627;42.728;23.256;2022-09-27T00:47:32;16.52;;;8.32;;
57800;SDS011;43627;42.728;23.256;2022-09-27T00:55:30;12.73;;;9.30;;
57800;SDS011;43627;42.728;23.256;2022-09-27T00:58:00;11.63;;;8.32;;
57800;SDS011;43627;42.728;23.256;2022-09-27T01:00:30;17.38;;;10.27;;
57800;SDS011;43627;42.728;23.256;2022-09-27T01:02:57;9.60;;;8.48;;
57800;SDS011;43627;42.728;23.256;2022-09-27T01:05:27;14.10;;;9.25;;
57800;SDS011;43627;42.728;23.256;2022-09-27T01:07:54;13.55;;;8.73;;
57800;SDS011;43627;42.728;23.256;2022-09-27T01:10:22;12.45;;;8.63;;
57800;SDS011;43627;42.728;23.256;2022-09-27T01:18:07;11.60;;;8.70;;
57800;SDS011;43627;42.728;23.256;2022-09-27T01:34:23;13.25;;;9.18;;
57800;SDS011;43627;42.728;23.256;2022-09-27T01:37:16;14.98;;;10.38;;
57800;SDS011;43627;42.728;23.256;2022-09-27T01:45:35;15.10;;;9.68;;
57800;SDS011;43627;42.728;23.256;2022-09-27T01:48:09;17.88;;;10.02;;
57800;SDS011;43627;42.728;23.256;2022-09-27T01:51:01;13.65;;;10.25;;
57800;SDS011;43627;42.728;23.256;2022-09-27T01:53:37;14.15;;;10.23;;
57800;SDS011;43627;42.728;23.256;2022-09-27T01:56:08;14.60;;;9.90;;
57800;SDS011;43627;42.728;23.256;2022-09-27T01:58:45;16.30;;;11.65;;
57800;SDS011;43627;42.728;23.256;2022-09-27T02:01:14;15.68;;;12.38;;
57800;SDS011;43627;42.728;23.256;2022-09-27T02:03:49;16.88;;;11.52;;
57800;SDS011;43627;42.728;23.256;2022-09-27T02:06:18;17.17;;;13.77;;
57800;SDS011;43627;42.728;23.256;2022-09-27T02:08:50;18.50;;;14.25;;
57800;SDS011;43627;42.728;23.256;2022-09-27T02:11:37;18.60;;;11.90;;
57800;SDS011;43627;42.728;23.256;2022-09-27T02:14:12;14.73;;;11.70;;
57800;SDS011;43627;42.728;23.256;2022-09-27T02:27:31;15.32;;;10.07;;
57800;SDS011;43627;42.728;23.256;2022-09-27T02:30:20;16.17;;;12.20;;
57800;SDS011;43627;42.728;23.256;2022-09-27T02:32:47;17.45;;;11.05;;
57800;SDS011;43627;42.728;23.256;2022-09-27T02:37:52;18.73;;;11.73;;
57800;SDS011;43627;42.728;23.256;2022-09-27T02:40:20;17.17;;;12.18;;
57800;SDS011;43627;42.728;23.256;2022-09-27T02:42:48;17.67;;;13.20;;
57800;SDS011;43627;42.728;23.256;2022-09-27T02:45:16;19.42;;;13.77;;
57800;SDS011;43627;42.728;23.256;2022-09-27T02:53:20;17.98;;;12.57;;
57800;SDS011;43627;42.728;23.256;2022-09-27T02:59:14;20.83;;;13.80;;
57800;SDS011;43627;42.728;23.256;2022-09-27T03:07:28;28.67;;;14.65;;
57800;SDS011;43627;42.728;23.256;2022-09-27T03:09:55;20.95;;;15.20;;
57800;SDS011;43627;42.728;23.256;2022-09-27T03:12:22;24.38;;;15.95;;
57800;SDS011;43627;42.728;23.256;2022-09-27T03:14:55;23.67;;;15.93;;
57800;SDS011;43627;42.728;23.256;2022-09-27T03:17:23;28.90;;;17.52;;
57800;SDS011;43627;42.728;23.256;2022-09-27T03:19:50;27.42;;;18.30;;
57800;SDS011;43627;42.728;23.256;2022-09-27T03:22:17;23.42;;;16.95;;
57800;SDS011;43627;42.728;23.256;2022-09-27T03:24:44;31.85;;;18.77;;
57800;SDS011;43627;42.728;23.256;2022-09-27T03:27:11;25.00;;;18.25;;
57800;SDS011;43627;42.728;23.256;2022-09-27T03:29:38;23.17;;;16.67;;
57800;SDS011;43627;42.728;23.256;2022-09-27T03:32:04;30.33;;;17.15;;
57800;SDS011;43627;42.728;23.256;2022-09-27T03:34:31;24.50;;;16.83;;
57800;SDS011;43627;42.728;23.256;2022-09-27T03:36:58;27.30;;;18.83;;
57800;SDS011;43627;42.728;23.256;2022-09-27T03:39:24;21.42;;;16.52;;
57800;SDS011;43627;42.728;23.256;2022-09-27T03:41:51;25.60;;;17.73;;
57800;SDS011;43627;42.728;23.256;2022-09-27T03:44:18;28.42;;;17.50;;
57800;SDS011;43627;42.728;23.256;2022-09-27T03:46:45;22.80;;;17.08;;
57800;SDS011;43627;42.728;23.256;2022-09-27T03:49:12;27.15;;;17.20;;
57800;SDS011;43627;42.728;23.256;2022-09-27T03:51:38;26.63;;;17.73;;
57800;SDS011;43627;42.728;23.256;2022-09-27T03:54:05;27.92;;;17.77;;
57800;SDS011;43627;42.728;23.256;2022-09-27T03:56:31;25.85;;;18.20;;
57800;SDS011;43627;42.728;23.256;2022-09-27T03:58:58;30.92;;;21.42;;
57800;SDS011;43627;42.728;23.256;2022-09-27T04:01:26;36.00;;;22.88;;
57800;SDS011;43627;42.728;23.256;2022-09-27T04:03:54;30.55;;;22.08;;
57800;SDS011;43627;42.728;23.256;2022-09-27T04:06:20;36.92;;;24.00;;
57800;SDS011;43627;42.728;23.256;2022-09-27T04:08:48;33.30;;;22.98;;
57800;SDS011;43627;42.728;23.256;2022-09-27T04:11:15;36.47;;;24.35;;
57800;SDS011;43627;42.728;23.256;2022-09-27T04:13:42;35.80;;;23.90;;
57800;SDS011;43627;42.728;23.256;2022-09-27T04:16:09;32.35;;;23.27;;
57800;SDS011;43627;42.728;23.256;2022-09-27T04:18:36;33.55;;;23.45;;
57800;SDS011;43627;42.728;23.256;2022-09-27T04:21:03;31.02;;;22.05;;
57800;SDS011;43627;42.728;23.256;2022-09-27T04:23:29;33.08;;;23.25;;
57800;SDS011;43627;42.728;23.256;2022-09-27T04:25:56;30.75;;;22.10;;
57800;SDS011;43627;42.728;23.256;2022-09-27T04:28:23;26.27;;;17.15;;
57800;SDS011;43627;42.728;23.256;2022-09-27T04:30:49;35.33;;;21.95;;
57800;SDS011;43627;42.728;23.256;2022-09-27T04:33:16;33.83;;;22.05;;
57800;SDS011;43627;42.728;23.256;2022-09-27T04:35:43;27.98;;;19.60;;
57800;SDS011;43627;42.728;23.256;2022-09-27T04:38:28;28.58;;;19.20;;
57800;SDS011;43627;42.728;23.256;2022-09-27T04:40:55;35.03;;;20.50;;
57800;SDS011;43627;42.728;23.256;2022-09-27T04:43:22;24.83;;;16.27;;
57800;SDS011;43627;42.728;23.256;2022-09-27T04:45:48;26.98;;;18.52;;
57800;SDS011;43627;42.728;23.256;2022-09-27T04:48:15;31.58;;;19.52;;
57800;SDS011;43627;42.728;23.256;2022-09-27T04:50:42;26.90;;;17.25;;
57800;SDS011;43627;42.728;23.256;2022-09-27T04:53:12;24.83;;;18.52;;
57800;SDS011;43627;42.728;23.256;2022-09-27T04:55:44;29.63;;;17.52;;
57800;SDS011;43627;42.728;23.256;2022-09-27T04:58:12;30.67;;;17.42;;
57800;SDS011;43627;42.728;23.256;2022-09-27T05:00:39;26.33;;;15.98;;
57800;SDS011;43627;42.728;23.256;2022-09-27T05:03:08;28.65;;;18.67;;
57800;SDS011;43627;42.728;23.256;2022-09-27T05:05:34;23.67;;;16.23;;
57800;SDS011;43627;42.728;23.256;2022-09-27T05:08:01;22.30;;;15.00;;
57800;SDS011;43627;42.728;23.256;2022-09-27T05:10:28;20.40;;;14.15;;
57800;SDS011;43627;42.728;23.256;2022-09-27T05:12:54;24.67;;;14.43;;
57800;SDS011;43627;42.728;23.256;2022-09-27T05:15:21;20.98;;;14.23;;
57800;SDS011;43627;42.728;23.256;2022-09-27T05:17:50;21.70;;;14.77;;
57800;SDS011;43627;42.728;23.256;2022-09-27T05:20:17;21.83;;;14.68;;
57800;SDS011;43627;42.728;23.256;2022-09-27T05:22:45;19.77;;;14.95;;
57800;SDS011;43627;42.728;23.256;2022-09-27T05:25:12;23.98;;;15.25;;
57800;SDS011;43627;42.728;23.256;2022-09-27T05:27:39;25.85;;;15.40;;
57800;SDS011;43627;42.728;23.256;2022-09-27T05:30:06;24.08;;;14.10;;
57800;SDS011;43627;42.728;23.256;2022-09-27T05:32:33;19.60;;;13.65;;
57800;SDS011;43627;42.728;23.256;2022-09-27T05:35:01;23.10;;;14.02;;
57800;SDS011;43627;42.728;23.256;2022-09-27T05:37:27;19.95;;;13.05;;
57800;SDS011;43627;42.728;23.256;2022-09-27T05:39:58;18.90;;;13.52;;
57800;SDS011;43627;42.728;23.256;2022-09-27T05:42:33;23.40;;;14.98;;
57800;SDS011;43627;42.728;23.256;2022-09-27T05:45:03;20.52;;;12.63;;
57800;SDS011;43627;42.728;23.256;2022-09-27T05:47:30;19.63;;;14.00;;
57800;SDS011;43627;42.728;23.256;2022-09-27T05:49:57;22.40;;;13.43;;
57800;SDS011;43627;42.728;23.256;2022-09-27T05:52:23;21.20;;;14.40;;
57800;SDS011;43627;42.728;23.256;2022-09-27T05:54:51;21.00;;;13.75;;
57800;SDS011;43627;42.728;23.256;2022-09-27T05:57:18;19.02;;;14.00;;
57800;SDS011;43627;42.728;23.256;2022-09-27T05:59:45;23.85;;;14.15;;
57800;SDS011;43627;42.728;23.256;2022-09-27T06:02:13;22.77;;;14.70;;
57800;SDS011;43627;42.728;23.256;2022-09-27T06:04:39;22.15;;;15.02;;
57800;SDS011;43627;42.728;23.256;2022-09-27T06:07:06;25.08;;;18.30;;
57800;SDS011;43627;42.728;23.256;2022-09-27T06:09:33;34.53;;;20.58;;
57800;SDS011;43627;42.728;23.256;2022-09-27T06:11:59;26.38;;;17.48;;
57800;SDS011;43627;42.728;23.256;2022-09-27T06:14:26;27.25;;;19.63;;
57800;SDS011;43627;42.728;23.256;2022-09-27T06:16:53;30.42;;;23.90;;
57800;SDS011;43627;42.728;23.256;2022-09-27T06:19:20;30.38;;;22.25;;
57800;SDS011;43627;42.728;23.256;2022-09-27T06:21:50;27.30;;;19.55;;
57800;SDS011;43627;42.728;23.256;2022-09-27T06:24:16;26.58;;;17.75;;
57800;SDS011;43627;42.728;23.256;2022-09-27T06:26:43;22.52;;;16.52;;
57800;SDS011;43627;42.728;23.256;2022-09-27T06:29:10;22.35;;;14.80;;
57800;SDS011;43627;42.728;23.256;2022-09-27T06:31:37;23.10;;;15.70;;
57800;SDS011;43627;42.728;23.256;2022-09-27T06:34:04;23.70;;;16.15;;
57800;SDS011;43627;42.728;23.256;2022-09-27T06:36:31;24.17;;;16.98;;
57800;SDS011;43627;42.728;23.256;2022-09-27T06:38:58;22.08;;;17.85;;
57800;SDS011;43627;42.728;23.256;2022-09-27T06:41:26;28.45;;;17.98;;
57800;SDS011;43627;42.728;23.256;2022-09-27T06:43:53;27.30;;;19.23;;
57800;SDS011;43627;42.728;23.256;2022-09-27T06:46:21;30.13;;;20.13;;
57800;SDS011;43627;42.728;23.256;2022-09-27T06:48:48;36.40;;;22.65;;
57800;SDS011;43627;42.728;23.256;2022-09-27T06:51:14;35.72;;;21.98;;
57800;SDS011;43627;42.728;23.256;2022-09-27T06:53:41;37.90;;;23.15;;
57800;SDS011;43627;42.728;23.256;2022-09-27T06:56:08;29.50;;;19.70;;
57800;SDS011;43627;42.728;23.256;2022-09-27T06:58:34;35.38;;;23.70;;
57800;SDS011;43627;42.728;23.256;2022-09-27T07:01:20;30.20;;;21.38;;
57800;SDS011;43627;42.728;23.256;2022-09-27T07:03:50;35.10;;;23.38;;
57800;SDS011;43627;42.728;23.256;2022-09-27T07:06:17;38.22;;;24.05;;
57800;SDS011;43627;42.728;23.256;2022-09-27T07:08:51;36.03;;;25.33;;
57800;SDS011;43627;42.728;23.256;2022-09-27T07:11:19;39.50;;;26.52;;
57800;SDS011;43627;42.728;23.256;2022-09-27T07:13:48;82.70;;;49.70;;
57800;SDS011;43627;42.728;23.256;2022-09-27T07:16:16;68.70;;;41.30;;
57800;SDS011;43627;42.728;23.256;2022-09-27T07:18:43;36.50;;;24.55;;
57800;SDS011;43627;42.728;23.256;2022-09-27T07:21:10;31.50;;;21.83;;
57800;SDS011;43627;42.728;23.256;2022-09-27T07:23:37;39.03;;;27.17;;
57800;SDS011;43627;42.728;23.256;2022-09-27T07:26:04;136.18;;;75.30;;
57800;SDS011;43627;42.728;23.256;2022-09-27T07:28:32;43.13;;;28.85;;
57800;SDS011;43627;42.728;23.256;2022-09-27T07:30:59;34.38;;;20.50;;
57800;SDS011;43627;42.728;23.256;2022-09-27T07:33:28;33.08;;;21.05;;
57800;SDS011;43627;42.728;23.256;2022-09-27T07:35:56;29.73;;;21.70;;
57800;SDS011;43627;42.728;23.256;2022-09-27T07:38:22;29.85;;;22.08;;
57800;SDS011;43627;42.728;23.256;2022-09-27T07:40:49;29.55;;;20.95;;
57800;SDS011;43627;42.728;23.256;2022-09-27T07:43:16;32.63;;;23.23;;
57800;SDS011;43627;42.728;23.256;2022-09-27T07:45:44;32.28;;;24.10;;
57800;SDS011;43627;42.728;23.256;2022-09-27T07:48:13;38.35;;;27.38;;
57800;SDS011;43627;42.728;23.256;2022-09-27T07:50:41;30.35;;;22.40;;
57800;SDS011;43627;42.728;23.256;2022-09-27T07:53:08;29.42;;;21.88;;
57800;SDS011;43627;42.728;23.256;2022-09-27T07:55:38;29.95;;;22.10;;
57800;SDS011;43627;42.728;23.256;2022-09-27T07:58:07;32.85;;;22.67;;
57800;SDS011;43627;42.728;23.256;2022-09-27T08:00:35;28.58;;;20.88;;
57800;SDS011;43627;42.728;23.256;2022-09-27T08:03:04;26.10;;;20.20;;
57800;SDS011;43627;42.728;23.256;2022-09-27T08:05:33;24.63;;;17.90;;
57800;SDS011;43627;42.728;23.256;2022-09-27T08:08:01;25.10;;;18.92;;
57800;SDS011;43627;42.728;23.256;2022-09-27T08:10:29;27.20;;;18.48;;
57800;SDS011;43627;42.728;23.256;2022-09-27T08:12:57;25.88;;;18.33;;
57800;SDS011;43627;42.728;23.256;2022-09-27T08:15:24;25.17;;;17.50;;
57800;SDS011;43627;42.728;23.256;2022-09-27T08:17:51;26.98;;;19.63;;
57800;SDS011;43627;42.728;23.256;2022-09-27T08:20:18;26.60;;;19.27;;
57800;SDS011;43627;42.728;23.256;2022-09-27T08:22:45;29.00;;;18.85;;
57800;SDS011;43627;42.728;23.256;2022-09-27T08:25:12;35.17;;;20.70;;
57800;SDS011;43627;42.728;23.256;2022-09-27T08:27:39;25.02;;;18.35;;
57800;SDS011;43627;42.728;23.256;2022-09-27T08:30:07;31.15;;;18.35;;
57800;SDS011;43627;42.728;23.256;2022-09-27T08:32:34;27.25;;;19.42;;
57800;SDS011;43627;42.728;23.256;2022-09-27T08:35:01;25.92;;;19.50;;
57800;SDS011;43627;42.728;23.256;2022-09-27T08:37:28;27.90;;;19.88;;
57800;SDS011;43627;42.728;23.256;2022-09-27T08:39:55;27.63;;;19.50;;
57800;SDS011;43627;42.728;23.256;2022-09-27T08:42:35;28.85;;;20.15;;
57800;SDS011;43627;42.728;23.256;2022-09-27T08:47:53;33.40;;;25.25;;
57800;SDS011;43627;42.728;23.256;2022-09-27T08:56:20;20.98;;;14.88;;
57800;SDS011;43627;42.728;23.256;2022-09-27T08:58:49;21.63;;;15.27;;
57800;SDS011;43627;42.728;23.256;2022-09-27T09:01:20;17.80;;;13.77;;
57800;SDS011;43627;42.728;23.256;2022-09-27T09:03:54;14.73;;;13.05;;
57800;SDS011;43627;42.728;23.256;2022-09-27T09:06:26;15.68;;;11.90;;
57800;SDS011;43627;42.728;23.256;2022-09-27T09:34:19;14.82;;;10.60;;
57800;SDS011;43627;42.728;23.256;2022-09-27T09:37:12;12.98;;;10.75;;
57800;SDS011;43627;42.728;23.256;2022-09-27T09:39:43;18.45;;;12.02;;
57800;SDS011;43627;42.728;23.256;2022-09-27T09:45:00;16.55;;;10.68;;
57800;SDS011;43627;42.728;23.256;2022-09-27T09:48:03;14.63;;;10.25;;
57800;SDS011;43627;42.728;23.256;2022-09-27T09:50:55;16.95;;;9.85;;
57800;SDS011;43627;42.728;23.256;2022-09-27T09:53:40;20.02;;;9.65;;
57800;SDS011;43627;42.728;23.256;2022-09-27T09:58:54;13.02;;;9.10;;
57800;SDS011;43627;42.728;23.256;2022-09-27T10:01:35;16.90;;;10.40;;
57800;SDS011;43627;42.728;23.256;2022-09-27T10:04:25;20.48;;;10.75;;
57800;SDS011;43627;42.728;23.256;2022-09-27T10:06:58;22.98;;;12.07;;
57800;SDS011;43627;42.728;23.256;2022-09-27T10:09:26;24.50;;;14.35;;
57800;SDS011;43627;42.728;23.256;2022-09-27T10:11:54;15.63;;;10.82;;
57800;SDS011;43627;42.728;23.256;2022-09-27T10:14:21;16.63;;;10.45;;
57800;SDS011;43627;42.728;23.256;2022-09-27T10:16:49;13.55;;;9.48;;
57800;SDS011;43627;42.728;23.256;2022-09-27T10:19:24;14.93;;;9.85;;
57800;SDS011;43627;42.728;23.256;2022-09-27T10:22:02;12.32;;;9.55;;
57800;SDS011;43627;42.728;23.256;2022-09-27T10:24:56;14.60;;;7.70;;
57800;SDS011;43627;42.728;23.256;2022-09-27T10:27:28;8.88;;;7.88;;
57800;SDS011;43627;42.728;23.256;2022-09-27T10:33:13;11.07;;;8.13;;
57800;SDS011;43627;42.728;23.256;2022-09-27T10:35:43;15.40;;;7.93;;
57800;SDS011;43627;42.728;23.256;2022-09-27T10:38:24;13.13;;;7.47;;
57800;SDS011;43627;42.728;23.256;2022-09-27T10:41:15;16.40;;;8.15;;
57800;SDS011;43627;42.728;23.256;2022-09-27T10:43:42;23.63;;;8.50;;
57800;SDS011;43627;42.728;23.256;2022-09-27T10:48:44;18.63;;;7.50;;
57800;SDS011;43627;42.728;23.256;2022-09-27T10:51:28;11.00;;;7.45;;
57800;SDS011;43627;42.728;23.256;2022-09-27T10:53:56;11.55;;;7.15;;
57800;SDS011;43627;42.728;23.256;2022-09-27T10:56:28;16.40;;;8.45;;
57800;SDS011;43627;42.728;23.256;2022-09-27T10:58:57;8.10;;;6.25;;
57800;SDS011;43627;42.728;23.256;2022-09-27T11:01:25;8.82;;;6.57;;
57800;SDS011;43627;42.728;23.256;2022-09-27T11:04:04;12.52;;;6.82;;
57800;SDS011;43627;42.728;23.256;2022-09-27T11:06:31;10.48;;;5.70;;
57800;SDS011;43627;42.728;23.256;2022-09-27T11:09:43;10.15;;;4.13;;
57800;SDS011;43627;42.728;23.256;2022-09-27T11:12:09;10.65;;;5.55;;
57800;SDS011;43627;42.728;23.256;2022-09-27T11:14:38;8.48;;;4.75;;
57800;SDS011;43627;42.728;23.256;2022-09-27T11:25:37;15.38;;;4.93;;
57800;SDS011;43627;42.728;23.256;2022-09-27T11:31:12;7.22;;;4.60;;
57800;SDS011;43627;42.728;23.256;2022-09-27T11:39:12;5.72;;;3.45;;
57800;SDS011;43627;42.728;23.256;2022-09-27T11:41:55;7.00;;;3.55;;
57800;SDS011;43627;42.728;23.256;2022-09-27T11:44:34;10.80;;;4.00;;
57800;SDS011;43627;42.728;23.256;2022-09-27T12:01:18;5.40;;;2.80;;
57800;SDS011;43627;42.728;23.256;2022-09-27T12:03:56;6.60;;;3.03;;
57800;SDS011;43627;42.728;23.256;2022-09-27T12:06:29;3.88;;;2.78;;
57800;SDS011;43627;42.728;23.256;2022-09-27T12:09:06;4.18;;;2.55;;
57800;SDS011;43627;42.728;23.256;2022-09-27T12:14:37;4.93;;;2.97;;
57800;SDS011;43627;42.728;23.256;2022-09-27T12:17:15;5.70;;;2.97;;
